Time;durP1;ratioP1;P1;durP2;ratioP2;P2;SDS_P1;SDS_P2;PMS_P1;PMS_P2;Temp;Humidity;BMP_temperature;BMP_pressure;BME280_temperature;BME280_humidity;BME280_pressure;Samples;Min_cycle;Max_cycle;Signal;HPM_P1;HPM_P2
2023/07/06 00:02:00;;;;;;;0.10;0.10;;;;;;;15.01;100.00;99122.13;4993708;28;20693;-78
2023/07/06 00:04:28;;;;;;;0.10;0.10;;;;;;;15.01;100.00;99117.63;5000324;28;20229;-78
2023/07/06 00:06:59;;;;;;;0.10;0.10;;;;;;;15.01;100.00;99120.28;5029585;28;20197;-78
2023/07/06 00:09:27;;;;;;;0.10;0.10;;;;;;;15.05;100.00;99111.03;5027507;28;20202;-79
2023/07/06 00:11:56;;;;;;;0.10;0.10;;;;;;;15.19;100.00;99117.91;5026287;28;20236;-78
2023/07/06 00:14:24;;;;;;;0.10;0.10;;;;;;;15.33;100.00;99116.75;5025899;28;20206;-78
2023/07/06 00:17:09;;;;;;;0.10;0.10;;;;;;;15.24;100.00;99123.69;5027016;28;20182;-78
2023/07/06 00:19:38;;;;;;;0.10;0.10;;;;;;;14.76;100.00;99129.44;5068667;28;20255;-78
2023/07/06 00:22:11;;;;;;;0.10;0.10;;;;;;;14.78;100.00;99124.03;5091936;28;20261;-77
2023/07/06 00:24:41;;;;;;;0.10;0.10;;;;;;;14.80;100.00;99114.91;5093713;28;20260;-78
2023/07/06 00:27:10;;;;;;;0.10;0.10;;;;;;;15.06;100.00;99125.25;5094479;28;20247;-78
2023/07/06 00:29:46;;;;;;;0.10;0.10;;;;;;;15.07;100.00;99122.47;5097119;27;20238;-78
2023/07/06 00:34:58;;;;;;;0.10;0.10;;;;;;;15.14;100.00;99125.44;5091088;28;20191;-78
2023/07/06 00:37:29;;;;;;;0.10;0.10;;;;;;;15.32;100.00;99125.72;5092451;28;20180;-77
2023/07/06 00:39:58;;;;;;;0.10;0.10;;;;;;;15.01;100.00;99122.13;5088869;28;20720;-77
2023/07/06 00:42:27;;;;;;;0.10;0.10;;;;;;;14.98;100.00;99131.22;5086342;28;20199;-77
2023/07/06 00:44:58;;;;;;;0.10;0.10;;;;;;;15.17;100.00;99122.53;5092807;28;20203;-78
2023/07/06 00:47:34;;;;;;;0.10;0.10;;;;;;;15.25;100.00;99121.88;5091977;28;20195;-78
2023/07/06 00:50:08;;;;;;;0.10;0.10;;;;;;;15.10;100.00;99124.88;5087150;28;20218;-77
2023/07/06 00:52:42;;;;;;;0.10;0.10;;;;;;;15.08;100.00;99123.31;5092708;28;20199;-77
2023/07/06 00:55:12;;;;;;;0.10;0.10;;;;;;;15.17;100.00;99126.06;5093345;28;20273;-77
2023/07/06 00:57:46;;;;;;;0.10;0.10;;;;;;;15.03;100.00;99131.69;5086524;28;20176;-77
2023/07/06 01:00:20;;;;;;;0.10;0.10;;;;;;;15.23;100.00;99126.50;5089950;28;20199;-78
2023/07/06 01:02:52;;;;;;;0.10;0.10;;;;;;;15.27;100.00;99123.47;5093053;28;20519;-78
2023/07/06 01:05:23;;;;;;;0.10;0.10;;;;;;;15.23;100.00;99122.00;5093945;28;20172;-78
2023/07/06 01:07:58;;;;;;;0.10;0.10;;;;;;;15.32;100.00;99134.59;5091272;28;20178;-78
2023/07/06 01:10:27;;;;;;;0.00;0.00;;;;;;;15.45;100.00;99123.75;5091932;28;20180;-77
2023/07/06 01:12:56;;;;;;;0.10;0.10;;;;;;;15.33;100.00;99116.75;5092288;28;20245;-77
2023/07/06 01:15:25;;;;;;;0.10;0.10;;;;;;;15.24;100.00;99125.53;5093230;28;20202;-77
2023/07/06 01:18:01;;;;;;;0.10;0.10;;;;;;;15.16;100.00;99127.03;5092108;28;20607;-78
2023/07/06 01:20:34;;;;;;;0.10;0.10;;;;;;;14.97;100.00;99126.88;5087211;28;20234;-77
2023/07/06 01:23:34;;;;;;;0.10;0.10;;;;;;;14.87;100.00;99125.94;5093321;28;20271;-80
2023/07/06 01:26:29;;;;;;;0.10;0.10;;;;;;;14.69;100.00;99125.63;5087823;28;20184;-78
2023/07/06 01:29:30;;;;;;;0.10;0.10;;;;;;;14.63;100.00;99128.78;5093291;28;20275;-77
2023/07/06 01:32:03;;;;;;;0.10;0.10;;;;;;;14.70;100.00;99132.63;5088284;28;20199;-80
2023/07/06 01:34:42;;;;;;;0.10;0.10;;;;;;;14.57;100.00;99130.13;5087518;28;20192;-80
2023/07/06 01:37:16;;;;;;;0.10;0.10;;;;;;;14.57;100.00;99126.59;5093742;28;20232;-78
2023/07/06 01:39:44;;;;;;;0.10;0.10;;;;;;;14.41;100.00;99123.44;5090531;28;20263;-78
2023/07/06 01:42:31;;;;;;;0.10;0.10;;;;;;;14.36;100.00;99121.13;5090966;28;20182;-78
2023/07/06 01:45:03;;;;;;;0.10;0.10;;;;;;;13.92;100.00;99125.53;5088967;28;20207;-78
2023/07/06 01:47:36;;;;;;;0.10;0.10;;;;;;;14.11;100.00;99130.25;5090666;28;20204;-78
2023/07/06 01:50:06;;;;;;;0.07;0.07;;;;;;;14.40;100.00;99124.44;5092664;28;20225;-78
2023/07/06 01:53:02;;;;;;;0.10;0.10;;;;;;;13.96;100.00;99126.13;5090939;28;20259;-78
2023/07/06 01:55:35;;;;;;;0.10;0.10;;;;;;;14.04;100.00;99129.03;5064464;28;20263;-78
2023/07/06 01:58:15;;;;;;;0.10;0.10;;;;;;;13.93;100.00;99132.53;5058535;28;20226;-78
2023/07/06 02:00:49;;;;;;;0.10;0.10;;;;;;;14.04;100.00;99132.53;5063341;28;20786;-78
2023/07/06 02:03:24;;;;;;;0.10;0.10;;;;;;;13.98;100.00;99132.16;5059175;28;20271;-78
2023/07/06 02:05:54;;;;;;;0.10;0.10;;;;;;;14.13;100.00;99132.78;5062842;28;20196;-78
2023/07/06 02:08:25;;;;;;;0.10;0.10;;;;;;;13.92;100.00;99124.69;5065409;28;20720;-78
2023/07/06 02:10:54;;;;;;;0.10;0.10;;;;;;;13.88;100.00;99126.72;5061743;28;20805;-78
2023/07/06 02:13:23;;;;;;;0.10;0.10;;;;;;;13.98;100.00;99130.34;5081993;28;20214;-78
2023/07/06 02:15:52;;;;;;;0.10;0.10;;;;;;;13.93;100.00;99129.03;5092945;28;20279;-78
2023/07/06 02:18:22;;;;;;;0.10;0.10;;;;;;;13.83;100.00;99128.06;5085207;28;20278;-78
2023/07/06 02:20:50;;;;;;;0.10;0.10;;;;;;;13.74;100.00;99130.47;5091333;28;20353;-78
2023/07/06 02:23:18;;;;;;;0.10;0.10;;;;;;;13.76;100.00;99141.00;5068967;28;20188;-78
2023/07/06 02:25:48;;;;;;;0.10;0.10;;;;;;;13.72;100.00;99129.75;5086045;28;20199;-77
2023/07/06 02:28:16;;;;;;;0.10;0.10;;;;;;;13.53;100.00;99132.13;5090621;28;20231;-78
2023/07/06 02:30:45;;;;;;;0.10;0.10;;;;;;;13.61;100.00;99148.34;5095613;27;20196;-78
2023/07/06 02:33:14;;;;;;;0.10;0.10;;;;;;;13.44;100.00;99146.13;5096302;28;20656;-77
2023/07/06 02:35:45;;;;;;;0.10;0.10;;;;;;;13.42;100.00;99145.41;5096178;28;20223;-78
2023/07/06 02:38:14;;;;;;;0.10;0.10;;;;;;;13.33;100.00;99140.78;5096057;28;20270;-78
2023/07/06 02:40:43;;;;;;;0.10;0.10;;;;;;;13.04;100.00;99145.59;5095229;28;20238;-78
2023/07/06 02:43:12;;;;;;;0.10;0.10;;;;;;;13.06;100.00;99141.00;5094014;28;20280;-78
2023/07/06 02:45:40;;;;;;;0.10;0.10;;;;;;;13.22;100.00;99140.72;5095633;28;20210;-77
2023/07/06 02:48:09;;;;;;;0.10;0.10;;;;;;;13.03;100.00;99139.44;5093139;28;20199;-78
2023/07/06 02:50:38;;;;;;;0.10;0.10;;;;;;;13.13;100.00;99136.94;5095586;28;20203;-78
2023/07/06 02:53:08;;;;;;;0.10;0.10;;;;;;;13.01;100.00;99143.97;5091522;28;20220;-78
2023/07/06 02:55:37;;;;;;;0.10;0.10;;;;;;;12.73;100.00;99134.53;5089705;28;20543;-83
2023/07/06 02:58:06;;;;;;;0.10;0.10;;;;;;;12.82;100.00;99144.50;5044461;28;20202;-78
2023/07/06 03:00:34;;;;;;;0.10;0.10;;;;;;;12.96;100.00;99143.50;5092399;28;20200;-78
2023/07/06 03:03:07;;;;;;;0.10;0.10;;;;;;;13.05;100.00;99141.97;5096270;28;20642;-78
2023/07/06 03:05:37;;;;;;;0.10;0.10;;;;;;;13.00;100.00;99142.28;5092557;28;20204;-78
2023/07/06 03:08:06;;;;;;;0.10;0.10;;;;;;;12.96;100.00;99151.47;5095078;28;20235;-78
2023/07/06 03:10:38;;;;;;;0.10;0.10;;;;;;;12.89;100.00;99151.06;5095420;28;20186;-78
2023/07/06 03:13:07;;;;;;;0.10;0.10;;;;;;;12.79;100.00;99146.53;5095906;28;20235;-78
2023/07/06 03:15:35;;;;;;;0.10;0.10;;;;;;;12.81;100.00;99156.09;5090421;28;20179;-78
2023/07/06 03:18:05;;;;;;;0.10;0.10;;;;;;;12.69;100.00;99154.34;5096050;28;20199;-78
2023/07/06 03:20:36;;;;;;;0.10;0.10;;;;;;;12.79;100.00;99154.50;5092034;28;20204;-78
2023/07/06 03:23:05;;;;;;;0.10;0.10;;;;;;;12.75;100.00;99166.34;5097812;27;20305;-78
2023/07/06 03:25:34;;;;;;;0.10;0.10;;;;;;;12.83;100.00;99169.25;5026185;28;20202;-78
2023/07/06 03:28:05;;;;;;;0.10;0.10;;;;;;;12.79;100.00;99166.00;5030184;28;20255;-77
2023/07/06 03:30:33;;;;;;;0.10;0.10;;;;;;;12.71;100.00;99160.38;5027866;28;20208;-78
2023/07/06 03:33:02;;;;;;;0.10;0.10;;;;;;;12.76;100.00;99163.56;5033097;28;20260;-78
2023/07/06 03:35:30;;;;;;;0.10;0.10;;;;;;;12.75;100.00;99156.56;5030443;28;20197;-77
2023/07/06 03:37:59;;;;;;;0.10;0.10;;;;;;;12.85;100.00;99154.06;5030973;28;20225;-78
2023/07/06 03:40:29;;;;;;;0.10;0.10;;;;;;;12.90;100.00;99163.38;5024698;28;20205;-78
2023/07/06 03:43:01;;;;;;;0.10;0.10;;;;;;;12.93;100.00;99158.81;5041294;28;20345;-78
2023/07/06 03:45:32;;;;;;;0.10;0.10;;;;;;;12.93;100.00;99164.13;5071483;28;20196;-78
2023/07/06 03:48:01;;;;;;;0.10;0.10;;;;;;;12.68;100.00;99167.75;5093747;28;20241;-78
2023/07/06 03:50:31;;;;;;;0.10;0.10;;;;;;;12.69;100.00;99167.63;5097589;27;20664;-78
2023/07/06 03:52:59;;;;;;;0.10;0.10;;;;;;;12.66;100.00;99162.53;5088217;28;20259;-78
2023/07/06 03:55:30;;;;;;;0.10;0.10;;;;;;;12.66;100.00;99167.00;5090163;28;20271;-78
2023/07/06 03:58:00;;;;;;;0.10;0.10;;;;;;;12.66;100.00;99167.00;5092212;28;20192;-78
2023/07/06 04:00:35;;;;;;;0.10;0.10;;;;;;;12.75;100.00;99166.34;5094559;28;20191;-78
2023/07/06 04:03:04;;;;;;;0.10;0.10;;;;;;;12.77;100.00;99173.22;5094521;28;20234;-78
2023/07/06 04:05:36;;;;;;;0.10;0.10;;;;;;;12.86;100.00;99177.88;5095138;28;20184;-78
2023/07/06 04:08:07;;;;;;;0.10;0.10;;;;;;;12.90;100.00;99174.03;5092547;28;20263;-78
2023/07/06 04:10:38;;;;;;;0.10;0.10;;;;;;;13.04;100.00;99172.19;5075247;28;20235;-78
2023/07/06 04:13:08;;;;;;;0.10;0.10;;;;;;;13.01;100.00;99165.25;5091298;28;20183;-78
2023/07/06 04:15:40;;;;;;;0.10;0.10;;;;;;;12.99;100.00;99167.19;5089248;28;20191;-78
2023/07/06 04:18:09;;;;;;;0.10;0.10;;;;;;;12.89;100.00;99172.31;5094598;28;20218;-78
2023/07/06 04:20:44;;;;;;;0.10;0.10;;;;;;;12.83;100.00;99171.91;5090580;28;20180;-78
2023/07/06 04:23:13;;;;;;;0.10;0.10;;;;;;;12.78;100.00;99172.28;5055062;28;20225;-78
2023/07/06 04:25:41;;;;;;;0.10;0.10;;;;;;;12.79;100.00;99168.66;5087182;28;20168;-78
2023/07/06 04:28:13;;;;;;;0.10;0.10;;;;;;;12.82;100.00;99173.72;5112538;28;20223;-78
2023/07/06 04:30:44;;;;;;;0.10;0.10;;;;;;;12.93;100.00;99180.06;5112813;28;20668;-79
2023/07/06 04:33:16;;;;;;;0.10;0.10;;;;;;;13.01;100.00;99173.22;5109901;28;20203;-82
2023/07/06 04:35:51;;;;;;;0.10;0.10;;;;;;;13.18;100.00;99179.97;5103571;28;20214;-78
2023/07/06 04:38:20;;;;;;;0.10;0.10;;;;;;;13.33;100.00;99181.53;5106314;28;20194;-78
2023/07/06 04:40:50;;;;;;;0.00;0.00;;;;;;;13.35;100.00;99176.09;5103744;28;20199;-79
2023/07/06 04:43:18;;;;;;;0.10;0.10;;;;;;;13.39;100.00;99180.19;5105054;28;20767;-79
2023/07/06 04:45:48;;;;;;;0.10;0.10;;;;;;;13.40;100.00;99176.56;5100816;28;20200;-78
2023/07/06 04:48:17;;;;;;;0.10;0.10;;;;;;;13.59;100.00;99182.19;5094268;28;20190;-78
2023/07/06 04:50:46;;;;;;;0.10;0.10;;;;;;;13.57;100.00;99177.97;5090344;28;20182;-78
2023/07/06 04:53:16;;;;;;;0.10;0.10;;;;;;;13.69;100.00;99171.69;5092094;28;20199;-78
2023/07/06 04:58:29;;;;;;;0.10;0.10;;;;;;;13.64;100.00;99188.03;5093486;28;20191;-79
2023/07/06 05:01:05;;;;;;;0.10;0.10;;;;;;;13.75;100.00;99187.22;5088181;28;20184;-79
2023/07/06 05:03:35;;;;;;;0.10;0.10;;;;;;;13.82;100.00;99190.25;5091217;28;20307;-78
2023/07/06 05:06:07;;;;;;;0.00;0.00;;;;;;;13.86;100.00;99189.06;5093313;28;20202;-78
2023/07/06 05:08:37;;;;;;;0.10;0.10;;;;;;;13.98;100.00;99191.59;5090168;28;20272;-79
2023/07/06 05:11:07;;;;;;;0.10;0.10;;;;;;;14.23;100.00;99195.03;5093429;28;20172;-78
2023/07/06 05:13:35;;;;;;;0.10;0.10;;;;;;;13.88;100.00;99203.94;5093401;28;20179;-78
2023/07/06 05:16:05;;;;;;;0.10;0.10;;;;;;;13.89;100.00;99199.44;5093229;28;20229;-78
2023/07/06 05:18:33;;;;;;;0.00;0.00;;;;;;;14.07;100.00;99203.38;5072693;28;20287;-79
2023/07/06 05:21:02;;;;;;;0.10;0.10;;;;;;;14.19;100.00;99210.41;5085465;28;20182;-78
2023/07/06 05:23:30;;;;;;;0.10;0.10;;;;;;;14.33;100.00;99204.84;5092937;28;20200;-78
2023/07/06 05:26:03;;;;;;;0.10;0.10;;;;;;;14.54;100.00;99214.81;5084073;28;20196;-78
2023/07/06 05:28:32;;;;;;;0.10;0.10;;;;;;;14.60;100.00;99212.50;5093575;28;20307;-79
2023/07/06 05:31:03;;;;;;;0.10;0.10;;;;;;;14.87;100.00;99211.28;5089771;28;20195;-79
2023/07/06 05:33:33;;;;;;;0.10;0.10;;;;;;;14.98;100.00;99221.91;5093304;28;20199;-79
2023/07/06 05:36:02;;;;;;;0.10;0.10;;;;;;;15.06;100.00;99214.16;5044997;28;20201;-79
2023/07/06 05:38:30;;;;;;;0.10;0.10;;;;;;;15.02;100.00;99219.84;5042457;28;20201;-79
2023/07/06 05:41:11;;;;;;;0.10;0.10;;;;;;;14.99;100.00;99223.59;5046624;28;20204;-78
2023/07/06 05:43:58;;;;;;;0.10;0.10;;;;;;;15.17;100.00;99223.94;4995914;28;20216;-79
2023/07/06 05:53:13;;;;;;;0.10;0.10;;;;;;;15.29;100.00;99222.91;5011986;28;20316;-79
2023/07/06 05:55:43;;;;;;;0.00;0.00;;;;;;;15.35;100.00;99225.09;5030222;28;20657;-78
2023/07/06 05:58:13;;;;;;;0.10;0.10;;;;;;;15.32;100.00;99235.16;5023513;28;20194;-78
2023/07/06 06:00:41;;;;;;;0.10;0.10;;;;;;;15.30;100.00;99231.78;5031861;28;20182;-78
2023/07/06 06:06:06;;;;;;;0.00;0.00;;;;;;;15.59;100.00;99242.72;4953619;28;20196;-78
2023/07/06 06:08:55;;;;;;;0.10;0.10;;;;;;;15.65;100.00;99235.06;4921823;28;20263;-78
2023/07/06 06:11:40;;;;;;;0.10;0.10;;;;;;;15.92;100.00;99247.94;4949781;29;20330;-78
2023/07/06 06:14:29;;;;;;;0.00;0.00;;;;;;;16.09;100.00;99233.13;4956258;28;20208;-79
2023/07/06 06:24:00;;;;;;;0.10;0.10;;;;;;;16.30;100.00;99252.66;4926788;29;20325;-78
2023/07/06 06:27:04;;;;;;;0.10;0.10;;;;;;;16.43;100.00;99256.97;4901725;29;20209;-78
2023/07/06 06:29:39;;;;;;;0.10;0.10;;;;;;;16.43;100.00;99252.47;4905756;29;20407;-78
2023/07/06 06:32:12;;;;;;;0.00;0.00;;;;;;;16.55;100.00;99256.72;4937066;29;20189;-78
2023/07/06 06:34:44;;;;;;;0.10;0.10;;;;;;;16.64;100.00;99247.06;4936440;29;20248;-78
2023/07/06 06:37:13;;;;;;;0.10;0.10;;;;;;;16.46;100.00;99259.34;4938995;28;20672;-78
2023/07/06 06:39:42;;;;;;;0.10;0.10;;;;;;;16.43;100.00;99264.97;4942809;28;20204;-78
2023/07/06 06:42:13;;;;;;;0.10;0.10;;;;;;;16.38;100.00;99267.19;4988604;28;20205;-78
2023/07/06 06:44:43;;;;;;;0.00;0.00;;;;;;;16.34;100.00;99260.44;5055296;28;20221;-79
2023/07/06 06:47:11;;;;;;;0.10;0.10;;;;;;;16.52;100.00;99269.53;5074297;28;20180;-79
2023/07/06 06:49:49;;;;;;;0.10;0.10;;;;;;;16.82;100.00;99266.03;5072455;28;20275;-78
2023/07/06 06:52:21;;;;;;;0.10;0.10;;;;;;;16.94;100.00;99266.78;5075003;28;20196;-78
2023/07/06 06:54:54;;;;;;;0.00;0.00;;;;;;;16.99;100.00;99265.41;5072716;28;20222;-78
2023/07/06 06:57:30;;;;;;;0.00;0.00;;;;;;;17.00;100.00;99267.09;5053663;28;20647;-78
2023/07/06 07:02:57;;;;;;;0.10;0.10;;;;;;;16.72;100.00;99267.81;5094381;28;20203;-78
2023/07/06 07:05:27;;;;;;;0.00;0.00;;;;;;;16.86;100.00;99265.63;5087763;28;20214;-79
2023/07/06 07:07:56;;;;;;;0.03;0.03;;;;;;;17.09;100.00;99266.28;5086379;28;20204;-78
2023/07/06 07:10:24;;;;;;;0.10;0.10;;;;;;;17.29;100.00;99267.16;5082086;28;20270;-78
2023/07/06 07:12:55;;;;;;;0.00;0.00;;;;;;;17.15;100.00;99271.06;5087136;28;20196;-78
2023/07/06 07:15:24;;;;;;;0.00;0.00;;;;;;;17.32;100.00;99274.06;5089841;28;20183;-79
2023/07/06 07:17:55;;;;;;;0.07;0.07;;;;;;;17.07;100.00;99275.41;5090380;28;20199;-79
2023/07/06 07:20:26;;;;;;;0.10;0.10;;;;;;;17.33;100.00;99262.34;5080015;28;20284;-79
2023/07/06 07:22:58;;;;;;;0.10;0.10;;;;;;;17.55;100.00;99267.44;5039269;28;20196;-78
2023/07/06 07:25:28;;;;;;;0.03;0.03;;;;;;;17.74;100.00;99267.50;5071691;28;20203;-79
2023/07/06 07:28:00;;;;;;;0.10;0.10;;;;;;;17.75;100.00;99260.31;5081778;28;20261;-79
2023/07/06 07:30:28;;;;;;;0.00;0.00;;;;;;;17.93;100.00;99266.63;5093007;28;20192;-79
2023/07/06 07:32:57;;;;;;;0.10;0.10;;;;;;;17.98;100.00;99260.88;5092516;28;20191;-79
2023/07/06 07:35:27;;;;;;;0.10;0.10;;;;;;;17.68;100.00;99260.00;5096061;27;20257;-79
2023/07/06 07:37:56;;;;;;;0.00;0.00;;;;;;;17.92;100.00;99262.28;5090782;28;20199;-79
2023/07/06 07:40:24;;;;;;;0.10;0.10;;;;;;;18.23;100.00;99268.28;5093617;28;20195;-79
2023/07/06 07:42:53;;;;;;;0.00;0.00;;;;;;;18.32;100.00;99258.53;5073556;28;20188;-79
2023/07/06 07:45:24;;;;;;;0.00;0.00;;;;;;;18.13;100.00;99261.25;5086468;28;20251;-79
2023/07/06 07:47:54;;;;;;;0.00;0.00;;;;;;;18.37;100.00;99252.75;5092491;28;20184;-79
2023/07/06 07:50:24;;;;;;;0.00;0.00;;;;;;;17.99;100.00;99263.41;5096999;27;20195;-78
2023/07/06 07:52:53;;;;;;;0.10;0.10;;;;;;;17.74;100.00;99259.47;5095129;28;20279;-78
2023/07/06 07:55:22;;;;;;;0.10;0.10;;;;;;;17.73;100.00;99264.97;5092182;28;20241;-79
2023/07/06 07:57:50;;;;;;;0.10;0.10;;;;;;;18.18;100.00;99250.97;5091372;28;20202;-79
2023/07/06 08:00:20;;;;;;;0.00;0.00;;;;;;;18.14;100.00;99255.75;5093038;28;20187;-79
2023/07/06 08:02:53;;;;;;;0.10;0.10;;;;;;;17.97;100.00;99261.88;5094494;28;20279;-78
2023/07/06 08:05:21;;;;;;;0.00;0.00;;;;;;;18.08;100.00;99259.03;5092180;28;20220;-78
2023/07/06 08:07:55;;;;;;;0.00;0.00;;;;;;;18.30;97.57;99249.78;5092128;28;20184;-78
2023/07/06 08:10:24;;;;;;;0.00;0.00;;;;;;;18.38;96.52;99241.88;5091802;28;20665;-79
2023/07/06 08:12:54;;;;;;;0.10;0.10;;;;;;;18.74;94.94;99247.44;5095018;28;20245;-79
2023/07/06 08:15:23;;;;;;;0.10;0.10;;;;;;;18.96;98.89;99241.66;5073356;28;20200;-78
2023/07/06 08:17:53;;;;;;;0.10;0.10;;;;;;;18.82;94.66;99237.66;5092844;28;20627;-78
2023/07/06 08:20:21;;;;;;;0.10;0.10;;;;;;;18.94;94.57;99253.56;5091156;28;20225;-78
2023/07/06 08:23:12;;;;;;;0.10;0.10;;;;;;;19.07;93.24;99248.66;5094327;28;20207;-79
2023/07/06 08:25:42;;;;;;;0.10;0.10;;;;;;;18.95;75.24;99253.41;5091503;28;20223;-78
2023/07/06 08:28:14;;;;;;;0.10;0.10;;;;;;;18.84;85.02;99259.81;5084312;28;20251;-79
2023/07/06 08:30:43;;;;;;;0.07;0.07;;;;;;;18.99;85.48;99251.25;5094079;28;20309;-79
2023/07/06 08:33:16;;;;;;;0.10;0.10;;;;;;;18.81;84.67;99254.72;5094686;28;20168;-78
2023/07/06 08:35:45;;;;;;;0.00;0.00;;;;;;;18.90;83.48;99258.34;5093833;28;20180;-79
2023/07/06 08:38:15;;;;;;;0.00;0.00;;;;;;;19.24;80.90;99255.09;5089016;28;20183;-79
2023/07/06 08:40:48;;;;;;;0.10;0.10;;;;;;;19.33;82.13;99257.72;5093143;28;20252;-78
2023/07/06 08:43:19;;;;;;;0.10;0.10;;;;;;;19.07;75.67;99259.41;5088220;28;20271;-79
2023/07/06 08:45:52;;;;;;;0.10;0.10;;;;;;;19.05;71.92;99267.63;5098931;27;20220;-78
2023/07/06 08:48:25;;;;;;;0.10;0.10;;;;;;;19.26;73.56;99266.50;5092570;28;20184;-79
2023/07/06 08:50:56;;;;;;;0.10;0.10;;;;;;;19.52;73.28;99266.63;5094034;28;20278;-78
2023/07/06 08:53:30;;;;;;;0.10;0.10;;;;;;;19.68;74.50;99261.44;5086546;28;20202;-80
2023/07/06 08:56:04;;;;;;;0.00;0.00;;;;;;;19.84;74.67;99271.50;5094118;28;20271;-79
2023/07/06 08:58:41;;;;;;;0.00;0.00;;;;;;;20.24;72.44;99268.28;5085510;28;20199;-79
2023/07/06 09:01:12;;;;;;;0.00;0.00;;;;;;;20.57;69.21;99264.03;5094198;28;20176;-79
2023/07/06 09:03:48;;;;;;;0.10;0.10;;;;;;;20.74;67.09;99267.63;5090374;28;20250;-79
2023/07/06 09:06:20;;;;;;;0.10;0.10;;;;;;;20.27;62.91;99274.22;5091833;28;20199;-79
2023/07/06 09:08:53;;;;;;;0.10;0.10;;;;;;;19.91;61.70;99270.72;5090266;28;20196;-79
2023/07/06 09:11:23;;;;;;;0.00;0.00;;;;;;;20.37;59.15;99271.44;5093260;28;20193;-78
2023/07/06 09:13:54;;;;;;;0.10;0.10;;;;;;;20.35;60.54;99273.41;5086057;28;20188;-79
2023/07/06 09:16:25;;;;;;;0.10;0.10;;;;;;;20.39;61.17;99282.03;5086792;28;20202;-79
2023/07/06 09:18:56;;;;;;;0.10;0.10;;;;;;;20.79;59.43;99274.22;5093103;28;20195;-79
2023/07/06 09:21:28;;;;;;;0.00;0.00;;;;;;;20.88;58.29;99268.88;5093030;28;20192;-79
2023/07/06 09:24:00;;;;;;;0.10;0.10;;;;;;;21.12;57.73;99266.28;5092940;28;20226;-79
2023/07/06 09:26:33;;;;;;;0.10;0.10;;;;;;;20.86;59.09;99269.91;5018206;28;20284;-79
2023/07/06 09:29:22;;;;;;;0.00;0.00;;;;;;;20.62;59.43;99274.28;5051019;28;20304;-79
2023/07/06 09:32:09;;;;;;;0.00;0.00;;;;;;;21.09;55.76;99272.84;5051029;28;20280;-79
2023/07/06 09:34:44;;;;;;;0.00;0.00;;;;;;;21.28;54.10;99268.22;5051037;28;20193;-79
2023/07/06 09:37:14;;;;;;;0.10;0.10;;;;;;;21.49;52.80;99278.56;5051150;28;20189;-80
2023/07/06 09:39:43;;;;;;;0.10;0.10;;;;;;;21.57;53.28;99268.63;5048044;28;20699;-79
2023/07/06 09:42:14;;;;;;;0.10;0.10;;;;;;;21.54;52.18;99276.22;5048402;28;20215;-79
2023/07/06 09:44:43;;;;;;;0.10;0.10;;;;;;;21.69;50.67;99266.47;5066005;28;20237;-79
2023/07/06 09:47:13;;;;;;;0.10;0.10;;;;;;;21.33;52.87;99273.97;5085822;28;20199;-79
2023/07/06 09:49:50;;;;;;;0.00;0.00;;;;;;;20.98;56.07;99280.38;5090476;28;20332;-79
2023/07/06 09:52:22;;;;;;;0.00;0.00;;;;;;;21.47;54.60;99272.50;5093515;28;20190;-79
2023/07/06 09:54:58;;;;;;;0.00;0.00;;;;;;;21.38;54.05;99264.38;5091947;28;20295;-79
2023/07/06 09:57:31;;;;;;;0.10;0.10;;;;;;;21.62;52.75;99273.53;5092064;28;20167;-79
2023/07/06 10:00:01;;;;;;;0.10;0.10;;;;;;;21.68;52.27;99267.47;5090673;28;20203;-79
2023/07/06 10:02:37;;;;;;;0.00;0.00;;;;;;;21.57;50.85;99265.94;5092520;28;20215;-79
2023/07/06 10:05:25;;;;;;;0.00;0.00;;;;;;;20.94;51.23;99273.59;5087943;28;20218;-79
2023/07/06 10:07:59;;;;;;;0.10;0.10;;;;;;;21.43;51.42;99266.59;5089080;28;20242;-79
2023/07/06 10:10:42;;;;;;;0.10;0.10;;;;;;;22.13;49.51;99277.81;5092057;28;20196;-79
2023/07/06 10:17:01;;;;;;;0.00;0.00;;;;;;;22.40;47.75;99268.53;5007783;28;20261;-80
2023/07/06 10:20:11;;;;;;;0.00;0.00;;;;;;;22.84;43.40;99263.53;4971332;28;20294;-79
2023/07/06 10:23:12;;;;;;;0.10;0.10;;;;;;;22.80;45.15;99259.47;4945221;28;20219;-79
2023/07/06 10:26:15;;;;;;;0.10;0.10;;;;;;;23.18;44.25;99262.41;4951288;29;20220;-79
2023/07/06 10:29:00;;;;;;;0.00;0.00;;;;;;;22.54;46.32;99266.97;4947465;29;20590;-79
2023/07/06 10:31:34;;;;;;;0.00;0.00;;;;;;;22.85;46.61;99264.38;4972847;28;20238;-79
2023/07/06 10:34:31;;;;;;;0.00;0.00;;;;;;;23.21;45.84;99259.34;4991151;28;20222;-78
2023/07/06 10:37:04;;;;;;;0.00;0.00;;;;;;;22.92;47.06;99265.38;4989029;28;20222;-79
2023/07/06 10:39:59;;;;;;;0.00;0.00;;;;;;;22.84;46.23;99268.94;4958819;28;20225;-80
2023/07/06 10:46:35;;;;;;;0.00;0.00;;;;;;;23.21;43.24;99262.03;5051180;28;20223;-79
2023/07/06 10:50:06;;;;;;;0.05;0.05;;;;;;;22.92;43.05;99270.78;5060568;28;20352;-78
2023/07/06 11:02:56;;;;;;;0.10;0.10;;;;;;;22.65;46.08;99260.34;4915175;29;20317;-79
2023/07/06 11:05:28;;;;;;;0.00;0.00;;;;;;;21.66;47.70;99273.03;4913846;29;20305;-79
2023/07/06 11:08:00;;;;;;;0.00;0.00;;;;;;;21.10;49.34;99271.00;4915141;29;20724;-78
2023/07/06 11:10:45;;;;;;;0.10;0.10;;;;;;;21.38;50.88;99285.94;4913676;29;20246;-79
2023/07/06 11:13:22;;;;;;;0.10;0.10;;;;;;;21.54;47.88;99282.47;4917281;28;20224;-79
2023/07/06 11:15:59;;;;;;;0.10;0.10;;;;;;;22.52;46.95;99263.59;5007193;28;20206;-79
2023/07/06 11:18:40;;;;;;;0.00;0.00;;;;;;;22.59;45.57;99278.09;5010250;28;20175;-79
2023/07/06 11:24:53;;;;;;;0.08;0.08;;;;;;;22.37;46.53;99278.81;4900361;29;20201;-79
2023/07/06 11:27:39;;;;;;;0.00;0.00;;;;;;;23.16;45.77;99271.69;4915274;29;20288;-79
2023/07/06 11:30:49;;;;;;;0.00;0.00;;;;;;;22.72;45.54;99278.41;4917936;29;20212;-79
2023/07/06 11:33:27;;;;;;;0.10;0.10;;;;;;;23.54;44.57;99278.91;4916413;29;20229;-79
2023/07/06 11:36:06;;;;;;;0.00;0.00;;;;;;;24.12;42.84;99272.09;4932149;28;20317;-79
2023/07/06 11:39:06;;;;;;;0.00;0.00;;;;;;;24.42;41.44;99270.34;4968661;28;20195;-80
2023/07/06 11:41:43;;;;;;;0.00;0.00;;;;;;;24.88;41.24;99272.88;5000395;28;20247;-79
2023/07/06 11:44:39;;;;;;;0.00;0.00;;;;;;;25.08;40.21;99274.03;5043323;28;20211;-79
2023/07/06 11:47:22;;;;;;;0.00;0.00;;;;;;;25.59;37.34;99268.63;5050784;28;20201;-79
2023/07/06 11:49:59;;;;;;;0.00;0.00;;;;;;;25.77;36.18;99276.34;5079997;28;20199;-79
2023/07/06 11:52:32;;;;;;;0.00;0.00;;;;;;;26.05;36.16;99273.66;5094450;28;20203;-79
2023/07/06 11:55:14;;;;;;;0.00;0.00;;;;;;;24.41;38.09;99273.22;5094292;28;20172;-80
2023/07/06 11:58:04;;;;;;;0.00;0.00;;;;;;;25.06;37.27;99269.84;5092068;28;20191;-79
2023/07/06 12:03:26;;;;;;;0.00;0.00;;;;;;;25.42;36.29;99263.59;5094914;28;20195;-79
2023/07/06 12:05:59;;;;;;;0.00;0.00;;;;;;;25.20;35.95;99268.16;5095067;28;20219;-79
2023/07/06 12:08:30;;;;;;;0.00;0.00;;;;;;;23.92;36.99;99260.09;5094362;28;20214;-79
2023/07/06 12:11:01;;;;;;;0.08;0.08;;;;;;;24.17;36.77;99256.16;5094569;28;20230;-79
2023/07/06 12:13:34;;;;;;;0.10;0.10;;;;;;;24.79;37.03;99263.16;5091297;28;20172;-79
2023/07/06 12:16:07;;;;;;;0.00;0.00;;;;;;;24.86;36.76;99258.69;5091717;28;20183;-80
2023/07/06 12:18:37;;;;;;;0.00;0.00;;;;;;;24.99;36.41;99258.84;5093386;28;20195;-80
2023/07/06 12:21:13;;;;;;;0.00;0.00;;;;;;;24.81;37.38;99253.84;5095377;28;20172;-80
2023/07/06 12:23:42;;;;;;;0.00;0.00;;;;;;;25.36;36.55;99252.47;5091906;28;20195;-79
2023/07/06 12:26:12;;;;;;;0.00;0.00;;;;;;;23.60;38.41;99251.19;5094328;28;20214;-79
2023/07/06 12:28:46;;;;;;;0.00;0.00;;;;;;;24.54;38.46;99251.78;5091877;28;20306;-79
2023/07/06 12:31:17;;;;;;;0.00;0.00;;;;;;;24.83;37.65;99250.94;5094288;28;20198;-79
2023/07/06 12:33:45;;;;;;;0.10;0.10;;;;;;;24.65;36.82;99243.19;5094025;28;20654;-80
2023/07/06 12:36:15;;;;;;;0.00;0.00;;;;;;;24.69;37.58;99241.78;5087782;28;20184;-80
2023/07/06 12:38:47;;;;;;;0.10;0.10;;;;;;;24.43;37.47;99242.25;5098541;27;20199;-79
2023/07/06 12:41:18;;;;;;;0.00;0.00;;;;;;;25.08;37.02;99238.78;5070334;28;20202;-79
2023/07/06 12:43:50;;;;;;;0.00;0.00;;;;;;;25.30;36.61;99250.53;5092550;28;20182;-79
2023/07/06 12:46:21;;;;;;;0.00;0.00;;;;;;;25.56;35.64;99241.84;5095296;27;20247;-79
2023/07/06 12:48:53;;;;;;;0.00;0.00;;;;;;;25.83;35.22;99234.84;5090878;28;20184;-80